createdAt,value
2017-09-12T00:00:07.849Z,0.00
2017-09-12T00:01:07.834Z,0.00
2017-09-12T00:02:07.821Z,0.00
2017-09-12T00:03:07.807Z,0.00
2017-09-12T00:04:08.041Z,0.00
2017-09-12T00:05:07.779Z,0.00
2017-09-12T00:06:07.768Z,0.00
2017-09-12T00:07:07.751Z,0.00
2017-09-12T00:08:07.739Z,0.00
2017-09-12T00:09:07.726Z,0.00
2017-09-12T00:10:07.963Z,0.00
2017-09-12T00:11:07.701Z,0.00
2017-09-12T00:12:07.686Z,0.00
2017-09-12T00:13:07.674Z,0.00
2017-09-12T00:14:07.661Z,0.00
2017-09-12T00:15:07.648Z,0.00
2017-09-12T00:16:07.932Z,0.00
2017-09-12T00:17:07.619Z,0.00
2017-09-12T00:18:07.608Z,0.00
2017-09-12T00:19:07.594Z,0.00
2017-09-12T00:20:07.580Z,0.00
2017-09-12T00:21:07.564Z,0.00
2017-09-12T00:22:07.653Z,0.00
2017-09-12T00:23:07.547Z,0.00
2017-09-12T00:24:07.524Z,0.00
2017-09-12T00:25:07.511Z,0.00
2017-09-12T00:26:07.498Z,0.00
2017-09-12T00:27:07.485Z,0.00
2017-09-12T00:28:07.569Z,0.00
2017-09-12T00:29:07.458Z,0.00
2017-09-12T00:30:07.444Z,0.00
2017-09-12T00:31:07.432Z,0.00
2017-09-12T00:32:07.418Z,0.00
2017-09-12T00:33:07.402Z,0.00
2017-09-12T00:34:07.491Z,0.00
2017-09-12T00:35:07.376Z,0.00
2017-09-12T00:36:07.397Z,0.00
2017-09-12T00:37:07.348Z,0.00
2017-09-12T00:38:07.336Z,0.00
2017-09-12T00:39:07.325Z,0.00
2017-09-12T00:40:07.411Z,0.00
2017-09-12T00:41:07.296Z,0.00
2017-09-12T00:42:07.285Z,0.00
2017-09-12T00:43:07.272Z,0.00
2017-09-12T00:44:07.255Z,0.00
2017-09-12T00:45:07.244Z,0.00
2017-09-12T00:46:07.330Z,0.00
2017-09-12T00:47:07.218Z,0.00
2017-09-12T00:48:07.204Z,0.00
2017-09-12T00:49:07.188Z,0.00
2017-09-12T00:50:07.175Z,0.00
2017-09-12T00:51:07.163Z,0.00
2017-09-12T00:52:07.249Z,0.00
2017-09-12T00:53:07.134Z,0.00
2017-09-12T00:54:07.122Z,0.00
2017-09-12T00:55:07.109Z,0.00
2017-09-12T00:56:07.094Z,0.00
2017-09-12T00:57:07.084Z,0.00
2017-09-12T00:58:07.169Z,0.00
2017-09-12T00:59:07.055Z,0.00
2017-09-12T01:00:07.041Z,0.00
2017-09-12T01:01:07.028Z,0.00
2017-09-12T01:02:07.014Z,0.00
2017-09-12T01:03:07.002Z,0.00
2017-09-12T01:04:07.086Z,0.00
2017-09-12T01:05:06.974Z,0.00
2017-09-12T01:06:06.962Z,0.00
2017-09-12T01:07:06.949Z,0.00
2017-09-12T01:08:06.934Z,0.00
2017-09-12T01:09:06.918Z,0.00
2017-09-12T02:34:20.487Z,0.00
2017-09-12T02:35:20.422Z,0.00
2017-09-12T02:37:20.396Z,0.00
2017-09-12T02:39:20.424Z,0.00
2017-09-12T02:41:20.341Z,0.00
2017-09-12T02:43:20.317Z,0.00
2017-09-12T02:45:20.287Z,0.00
2017-09-12T02:47:20.257Z,0.00
2017-09-12T02:49:20.288Z,0.00
2017-09-12T02:51:20.259Z,0.00
2017-09-12T02:53:20.177Z,0.00
2017-09-12T02:55:20.149Z,0.00
2017-09-12T02:57:20.123Z,0.00
2017-09-12T02:59:20.101Z,0.00
2017-09-12T03:01:20.121Z,0.00
2017-09-12T03:03:20.056Z,0.00
2017-09-12T03:05:20.017Z,0.00
2017-09-12T03:06:20.002Z,0.00
2017-09-12T03:07:19.986Z,0.00
2017-09-12T03:09:19.961Z,0.00
2017-09-12T03:10:19.946Z,0.00
2017-09-12T03:11:19.937Z,0.00
2017-09-12T03:13:19.956Z,0.00
2017-09-12T03:14:19.890Z,0.00
2017-09-12T03:15:19.877Z,0.00
2017-09-12T03:17:19.851Z,0.00
2017-09-12T03:18:19.892Z,0.00
2017-09-12T03:19:19.824Z,0.00
2017-09-12T03:21:19.796Z,0.00
2017-09-12T03:22:19.782Z,0.00
2017-09-12T03:23:19.767Z,0.00
2017-09-12T03:25:19.792Z,0.00
2017-09-12T03:26:19.728Z,0.00
2017-09-12T03:27:19.714Z,0.00
2017-09-12T03:29:19.685Z,0.00
2017-09-12T03:30:19.723Z,0.00
2017-09-12T03:31:19.657Z,0.00
2017-09-12T03:32:19.645Z,0.00
2017-09-12T03:33:19.631Z,0.00
2017-09-12T03:34:19.626Z,0.00
2017-09-12T03:35:19.653Z,0.00
2017-09-12T03:36:19.591Z,0.00
2017-09-12T03:37:19.578Z,0.00
2017-09-12T03:38:19.563Z,0.00
2017-09-12T03:39:19.548Z,0.00
2017-09-12T03:40:19.586Z,0.00
2017-09-12T03:41:19.523Z,0.00
2017-09-12T03:42:19.508Z,0.00
2017-09-12T03:43:19.494Z,0.00
2017-09-12T03:44:19.486Z,0.00
2017-09-12T03:45:19.467Z,0.00
2017-09-12T03:46:19.461Z,0.00
2017-09-12T03:47:19.440Z,0.00
2017-09-12T03:48:19.426Z,0.00
2017-09-12T03:49:19.464Z,0.00
2017-09-12T03:50:19.401Z,0.00
2017-09-12T03:51:19.387Z,0.00
2017-09-12T03:52:19.428Z,0.00
2017-09-12T03:53:19.364Z,0.00
2017-09-12T03:54:19.345Z,0.00
2017-09-12T03:55:19.337Z,0.00
2017-09-12T03:56:19.317Z,0.00
2017-09-12T03:57:19.304Z,0.00
2017-09-12T03:58:19.291Z,0.00
2017-09-12T03:59:19.279Z,0.00
2017-09-12T04:00:19.264Z,0.00
2017-09-12T04:01:19.250Z,0.00
2017-09-12T04:02:19.237Z,0.00
2017-09-12T04:03:19.222Z,0.00
2017-09-12T04:04:19.210Z,0.00
2017-09-12T04:05:19.194Z,0.00
2017-09-12T04:06:19.233Z,0.00
2017-09-12T04:07:19.175Z,0.00
2017-09-12T04:08:19.157Z,0.00
2017-09-12T04:09:19.146Z,0.00
2017-09-12T04:10:19.127Z,0.00
2017-09-12T04:11:19.163Z,0.00
2017-09-12T04:12:19.100Z,0.00
2017-09-12T04:13:19.092Z,0.00
2017-09-12T04:14:19.074Z,0.00
2017-09-12T04:15:19.057Z,0.00
2017-09-12T04:16:19.096Z,0.00
2017-09-12T04:17:19.033Z,0.00
2017-09-12T04:18:19.019Z,0.00
2017-09-12T04:19:19.004Z,0.00
2017-09-12T04:20:18.995Z,0.00
2017-09-12T04:21:18.983Z,0.00
2017-09-12T04:22:18.965Z,0.00
2017-09-12T04:23:18.949Z,0.00
2017-09-12T04:24:18.936Z,0.00
2017-09-12T04:25:18.923Z,0.00
2017-09-12T04:26:18.915Z,0.00
2017-09-12T04:27:18.895Z,0.00
2017-09-12T04:28:18.882Z,0.00
2017-09-12T04:29:18.870Z,0.00
2017-09-12T04:30:18.856Z,0.00
2017-09-12T04:31:18.841Z,0.00
2017-09-12T04:32:18.831Z,0.00
2017-09-12T04:33:18.815Z,0.00
2017-09-12T04:34:18.806Z,0.00
2017-09-12T04:35:18.792Z,0.00
2017-09-12T04:36:18.779Z,0.00
2017-09-12T04:37:18.811Z,0.00
2017-09-12T04:38:18.746Z,0.00
2017-09-12T04:39:18.738Z,0.00
2017-09-12T04:40:18.724Z,0.00
2017-09-12T04:41:18.765Z,0.00
2017-09-12T04:42:18.693Z,4.00
2017-09-12T04:43:18.677Z,4.00
2017-09-12T04:44:18.666Z,0.00
2017-09-12T04:45:18.655Z,4.00
2017-09-12T04:46:18.636Z,4.00
2017-09-12T04:47:18.628Z,4.00
2017-09-12T04:48:18.609Z,4.00
2017-09-12T04:49:18.651Z,4.00
2017-09-12T04:50:18.583Z,8.00
2017-09-12T04:51:18.568Z,8.00
2017-09-12T04:52:18.553Z,8.00
2017-09-12T04:53:18.546Z,12.00
2017-09-12T04:54:18.576Z,8.00
2017-09-12T04:55:18.564Z,12.00
2017-09-12T04:56:18.503Z,12.00
2017-09-12T04:57:18.486Z,12.00
2017-09-12T04:58:18.472Z,12.00
2017-09-12T04:59:18.458Z,16.00
2017-09-12T05:00:18.494Z,16.00
2017-09-12T05:01:18.494Z,16.00
2017-09-12T05:02:18.418Z,12.00
2017-09-12T05:03:18.403Z,12.00
2017-09-12T05:04:18.391Z,16.00
2017-09-12T05:05:18.376Z,16.00
2017-09-12T05:06:18.361Z,16.00
2017-09-12T05:07:18.353Z,12.00
2017-09-12T05:08:18.333Z,12.00
2017-09-12T05:09:18.323Z,16.00
2017-09-12T05:10:18.306Z,16.00
2017-09-12T05:11:18.298Z,16.00
2017-09-12T05:12:18.278Z,20.00
2017-09-12T05:13:18.266Z,16.00
2017-09-12T05:14:18.252Z,24.00
2017-09-12T05:15:18.242Z,24.00
2017-09-12T05:16:18.273Z,28.00
2017-09-12T05:17:18.262Z,32.00
2017-09-12T05:18:18.196Z,36.00
2017-09-12T05:19:18.182Z,44.00
2017-09-12T05:20:18.172Z,40.00
2017-09-12T05:21:18.154Z,36.00
2017-09-12T05:22:18.190Z,40.00
2017-09-12T05:23:18.124Z,52.00
2017-09-12T05:24:18.111Z,60.00
2017-09-12T05:25:18.096Z,64.00
2017-09-12T05:26:18.084Z,72.00
2017-09-12T05:27:18.068Z,76.00
2017-09-12T05:28:18.054Z,76.00
2017-09-12T05:29:18.041Z,80.00
2017-09-12T05:30:18.025Z,76.00
2017-09-12T05:31:18.016Z,80.00
2017-09-12T05:32:17.996Z,80.00
2017-09-12T05:33:18.038Z,80.00
2017-09-12T05:34:17.968Z,80.00
2017-09-12T05:35:18.011Z,88.00
2017-09-12T05:36:17.939Z,88.00
2017-09-12T05:37:17.930Z,88.00
2017-09-12T05:38:17.910Z,88.00
2017-09-12T05:39:17.900Z,96.00
2017-09-12T05:40:17.932Z,108.00
2017-09-12T05:41:17.871Z,120.00
2017-09-12T05:42:17.852Z,132.00
2017-09-12T05:43:17.836Z,144.00
2017-09-12T05:44:17.827Z,164.00
2017-09-12T05:45:17.858Z,188.00
2017-09-12T05:46:17.793Z,188.00
2017-09-12T05:47:17.782Z,176.00
2017-09-12T05:48:17.762Z,172.00
2017-09-12T05:49:17.755Z,180.00
2017-09-12T05:50:17.784Z,180.00
2017-09-12T05:51:17.722Z,172.00
2017-09-12T05:52:17.707Z,188.00
2017-09-12T05:53:17.693Z,220.00
2017-09-12T05:54:17.677Z,224.00
2017-09-12T05:55:17.712Z,220.00
2017-09-12T05:56:17.650Z,216.00
2017-09-12T05:57:17.684Z,212.00
2017-09-12T05:58:17.624Z,212.00
2017-09-12T05:59:17.609Z,208.00
2017-09-12T06:00:17.640Z,208.00
2017-09-12T06:01:17.581Z,196.00
2017-09-12T06:02:17.611Z,200.00
2017-09-12T06:03:17.552Z,216.00
2017-09-12T06:04:17.531Z,240.00
2017-09-12T06:05:17.519Z,260.00
2017-09-12T06:06:17.504Z,260.00
2017-09-12T06:07:17.539Z,268.00
2017-09-12T06:08:17.475Z,276.00
2017-09-12T06:09:17.459Z,292.00
2017-09-12T06:10:17.445Z,304.00
2017-09-12T06:11:17.432Z,328.00
2017-09-12T06:12:17.416Z,352.00
2017-09-12T06:13:17.458Z,372.00
2017-09-12T06:14:17.390Z,380.00
2017-09-12T06:15:17.374Z,396.00
2017-09-12T06:16:17.361Z,412.00
2017-09-12T06:17:17.346Z,424.00
2017-09-12T06:18:17.336Z,440.00
2017-09-12T06:19:17.317Z,464.00
2017-09-12T06:20:17.352Z,484.00
2017-09-12T06:21:17.289Z,492.00
2017-09-12T06:22:17.274Z,488.00
2017-09-12T06:23:17.259Z,504.00
2017-09-12T06:24:17.245Z,540.00
2017-09-12T06:25:17.282Z,616.00
2017-09-12T06:26:17.218Z,692.00
2017-09-12T06:27:17.200Z,728.00
2017-09-12T06:28:17.188Z,680.00
2017-09-12T06:29:17.172Z,672.00
2017-09-12T06:30:17.214Z,684.00
2017-09-12T06:31:17.142Z,668.00
2017-09-12T06:32:17.128Z,660.00
2017-09-12T06:33:17.116Z,708.00
2017-09-12T06:34:17.101Z,756.00
2017-09-12T06:35:17.085Z,876.00
2017-09-12T06:36:17.072Z,1052.00
2017-09-12T06:37:17.061Z,1136.00
2017-09-12T06:38:17.041Z,1232.00
2017-09-12T06:39:17.026Z,1068.00
2017-09-12T06:40:17.063Z,928.00
2017-09-12T06:41:16.998Z,832.00
2017-09-12T06:42:16.983Z,852.00
2017-09-12T06:43:16.968Z,960.00
2017-09-12T06:44:16.952Z,932.00
2017-09-12T06:45:16.993Z,932.00
2017-09-12T06:46:16.924Z,988.00
2017-09-12T06:47:16.909Z,1040.00
2017-09-12T06:48:16.895Z,1164.00
2017-09-12T06:49:16.880Z,1228.00
2017-09-12T06:50:16.916Z,1288.00
2017-09-12T06:51:16.855Z,1396.00
2017-09-12T06:52:16.837Z,1516.00
2017-09-12T06:53:16.821Z,1596.00
2017-09-12T06:54:16.806Z,1712.00
2017-09-12T06:55:16.846Z,1772.00
2017-09-12T06:56:16.779Z,1788.00
2017-09-12T06:57:16.764Z,1776.00
2017-09-12T06:58:16.752Z,1748.00
2017-09-12T06:59:16.733Z,1728.00
2017-09-12T07:00:16.719Z,1732.00
2017-09-12T07:01:16.706Z,1780.00
2017-09-12T07:02:16.696Z,1844.00
2017-09-12T07:03:16.727Z,1960.00
2017-09-12T07:04:16.662Z,1992.00
2017-09-12T07:05:16.647Z,2116.00
2017-09-12T07:06:16.639Z,2036.00
2017-09-12T07:07:16.619Z,1992.00
2017-09-12T07:08:16.659Z,1872.00
2017-09-12T07:09:16.595Z,1908.00
2017-09-12T07:10:16.581Z,1876.00
2017-09-12T07:11:16.565Z,1864.00
2017-09-12T07:12:16.552Z,1820.00
2017-09-12T07:13:16.542Z,1688.00
2017-09-12T07:14:16.517Z,1520.00
2017-09-12T07:15:16.504Z,1388.00
2017-09-12T07:16:16.540Z,1272.00
2017-09-12T07:17:16.481Z,1236.00
2017-09-12T07:18:16.460Z,1284.00
2017-09-12T07:19:16.446Z,1376.00
2017-09-12T07:20:16.433Z,1740.00
2017-09-12T07:21:16.418Z,1812.00
2017-09-12T07:22:16.409Z,1904.00
2017-09-12T07:23:16.389Z,1960.00
2017-09-12T07:24:16.375Z,2136.00
2017-09-12T07:25:16.359Z,2440.00
2017-09-12T07:26:16.352Z,2656.00
2017-09-12T07:27:16.337Z,2796.00
2017-09-12T07:28:16.317Z,2992.00
2017-09-12T07:29:16.303Z,3088.00
2017-09-12T07:30:16.293Z,3208.00
2017-09-12T07:31:16.275Z,3356.00
2017-09-12T07:32:16.264Z,3444.00
2017-09-12T07:33:16.245Z,3296.00
2017-09-12T07:34:16.232Z,3132.00
2017-09-12T07:35:16.222Z,2916.00
2017-09-12T07:36:16.202Z,2488.00
2017-09-12T07:37:16.188Z,2116.00
2017-09-12T07:38:16.180Z,1868.00
2017-09-12T07:39:16.159Z,1940.00
2017-09-12T07:40:16.152Z,2000.00
2017-09-12T07:41:16.132Z,1988.00
2017-09-12T07:42:16.125Z,2124.00
2017-09-12T07:43:16.155Z,2232.00
2017-09-12T07:44:16.096Z,2364.00
2017-09-12T07:45:16.081Z,2492.00
2017-09-12T07:46:16.062Z,2224.00
2017-09-12T07:47:16.049Z,2052.00
2017-09-12T07:48:16.089Z,2020.00
2017-09-12T07:49:16.025Z,1932.00
2017-09-12T07:50:16.005Z,1784.00
2017-09-12T07:51:15.993Z,1724.00
2017-09-12T07:52:15.977Z,1672.00
2017-09-12T07:53:16.016Z,1592.00
2017-09-12T07:54:15.952Z,1460.00
2017-09-12T07:55:15.943Z,1352.00
2017-09-12T07:56:15.921Z,1492.00
2017-09-12T07:57:15.907Z,1560.00
2017-09-12T07:58:15.945Z,1548.00
2017-09-12T07:59:15.881Z,1480.00
2017-09-12T08:00:15.865Z,1520.00
2017-09-12T08:01:15.852Z,1668.00
2017-09-12T08:02:15.845Z,1824.00
2017-09-12T08:03:15.880Z,2140.00
2017-09-12T08:04:15.811Z,2548.00
2017-09-12T08:05:15.798Z,2744.00
2017-09-12T08:06:15.790Z,2772.00
2017-09-12T08:07:15.770Z,2756.00
2017-09-12T08:08:15.806Z,2744.00
2017-09-12T08:09:15.743Z,2584.00
2017-09-12T08:10:15.729Z,2380.00
2017-09-12T08:11:15.715Z,2248.00
2017-09-12T08:12:15.703Z,2260.00
2017-09-12T08:13:15.688Z,2276.00
2017-09-12T08:14:15.675Z,2236.00
2017-09-12T08:15:15.663Z,2204.00
2017-09-12T08:16:15.647Z,2416.00
2017-09-12T08:17:15.634Z,2404.00
2017-09-12T08:18:15.671Z,2360.00
2017-09-12T08:19:15.658Z,2292.00
2017-09-12T08:20:15.594Z,2432.00
2017-09-12T08:21:15.582Z,2556.00
2017-09-12T08:22:15.568Z,2552.00
2017-09-12T08:23:15.552Z,2668.00
2017-09-12T08:24:15.539Z,2680.00
2017-09-12T08:25:15.530Z,2612.00
2017-09-12T08:26:15.512Z,2504.00
2017-09-12T08:27:15.504Z,2536.00
2017-09-12T08:28:15.487Z,2512.00
2017-09-12T08:29:15.473Z,2456.00
2017-09-12T08:30:15.460Z,2408.00
2017-09-12T08:31:15.454Z,2284.00
2017-09-12T08:32:15.437Z,2284.00
2017-09-12T08:33:15.417Z,2312.00
2017-09-12T08:34:15.406Z,2672.00
2017-09-12T08:35:15.397Z,3164.00
2017-09-12T08:36:15.380Z,3772.00
2017-09-12T08:37:15.414Z,3956.00
2017-09-12T08:38:15.356Z,3980.00
2017-09-12T08:39:15.337Z,4188.00
2017-09-12T08:40:15.330Z,4536.00
2017-09-12T08:41:15.316Z,5208.00
2017-09-12T08:42:15.299Z,5860.00
2017-09-12T08:43:15.283Z,5820.00
2017-09-12T08:44:15.320Z,4276.00
2017-09-12T08:45:15.262Z,3980.00
2017-09-12T08:46:15.245Z,4028.00
2017-09-12T08:47:15.253Z,4328.00
2017-09-12T08:48:15.217Z,4504.00
2017-09-12T08:49:15.253Z,4700.00
2017-09-12T08:50:15.196Z,5152.00
2017-09-12T08:51:15.227Z,5168.00
2017-09-12T08:52:15.170Z,4544.00
2017-09-12T08:53:15.152Z,4160.00
2017-09-12T08:54:15.138Z,4344.00
2017-09-12T08:55:15.173Z,4504.00
2017-09-12T08:56:15.116Z,4552.00
2017-09-12T08:57:15.103Z,4324.00
2017-09-12T08:58:15.091Z,4044.00
2017-09-12T08:59:15.076Z,4104.00
2017-09-12T09:00:15.063Z,3888.00
2017-09-12T09:01:15.052Z,3704.00
2017-09-12T09:02:15.089Z,3584.00
2017-09-12T09:03:15.019Z,3516.00
2017-09-12T09:04:15.005Z,3516.00
2017-09-12T09:05:14.993Z,3668.00
2017-09-12T09:06:14.980Z,3964.00
2017-09-12T09:07:14.969Z,4660.00
2017-09-12T09:08:14.960Z,3804.00
2017-09-12T09:09:14.943Z,3328.00
2017-09-12T09:10:14.935Z,3484.00
2017-09-12T09:11:14.915Z,3412.00
2017-09-12T09:12:14.904Z,3332.00
2017-09-12T09:13:14.891Z,3328.00
2017-09-12T09:14:14.881Z,3388.00
2017-09-12T09:15:14.867Z,3456.00
2017-09-12T09:16:14.855Z,3576.00
2017-09-12T09:17:14.841Z,3656.00
2017-09-12T09:18:14.829Z,3716.00
2017-09-12T09:19:14.866Z,3708.00
2017-09-12T09:20:14.808Z,3688.00
2017-09-12T09:21:14.791Z,3568.00
2017-09-12T09:22:14.779Z,3580.00
2017-09-12T09:23:14.764Z,3596.00
2017-09-12T09:24:14.753Z,3688.00
2017-09-12T09:25:14.791Z,3904.00
2017-09-12T09:26:14.727Z,4104.00
2017-09-12T09:27:14.715Z,3968.00
2017-09-12T09:28:14.710Z,3604.00
2017-09-12T09:29:14.695Z,3544.00
2017-09-12T09:30:14.682Z,3472.00
2017-09-12T09:31:14.665Z,3384.00
2017-09-12T09:32:14.653Z,3328.00
2017-09-12T09:33:14.640Z,3352.00
2017-09-12T09:34:14.633Z,3316.00
2017-09-12T09:35:14.621Z,3272.00
2017-09-12T09:36:14.654Z,3280.00
2017-09-12T09:37:14.674Z,3204.00
2017-09-12T09:38:14.579Z,3012.00
2017-09-12T09:39:14.567Z,2964.00
2017-09-12T09:40:14.552Z,2920.00
2017-09-12T09:41:14.558Z,2872.00
2017-09-12T09:42:14.585Z,2992.00
2017-09-12T09:43:14.521Z,3640.00
2017-09-12T09:44:14.505Z,4284.00
2017-09-12T09:45:14.491Z,4072.00
2017-09-12T09:46:14.480Z,4200.00
2017-09-12T09:47:14.516Z,4176.00
2017-09-12T09:48:14.463Z,3924.00
2017-09-12T09:49:14.442Z,3920.00
2017-09-12T09:50:14.435Z,3376.00
2017-09-12T09:51:14.416Z,3760.00
2017-09-12T09:52:14.461Z,3920.00
2017-09-12T09:53:14.393Z,3560.00
2017-09-12T09:54:14.379Z,3244.00
2017-09-12T09:55:14.371Z,3204.00
2017-09-12T09:56:14.360Z,2988.00
2017-09-12T09:57:14.392Z,2972.00
2017-09-12T09:58:14.329Z,3220.00
2017-09-12T09:59:14.367Z,3264.00
2017-09-12T10:00:14.305Z,3568.00
2017-09-12T10:01:14.291Z,3708.00
2017-09-12T10:02:14.278Z,4016.00
2017-09-12T10:03:14.267Z,4128.00
2017-09-12T10:04:14.303Z,3960.00
2017-09-12T10:05:14.241Z,4524.00
2017-09-12T10:06:14.227Z,4400.00
2017-09-12T10:07:14.214Z,4596.00
2017-09-12T10:08:14.208Z,5384.00
2017-09-12T10:09:14.241Z,5304.00
2017-09-12T10:10:14.178Z,4944.00
2017-09-12T10:11:14.164Z,4784.00
2017-09-12T10:12:14.152Z,3976.00
2017-09-12T10:13:14.140Z,3744.00
2017-09-12T10:14:14.126Z,3436.00
2017-09-12T10:15:14.165Z,3348.00
2017-09-12T10:16:14.102Z,3456.00
2017-09-12T10:17:14.093Z,3076.00
2017-09-12T10:18:14.077Z,2552.00
2017-09-12T10:19:14.062Z,2200.00
2017-09-12T10:20:14.103Z,2176.00
2017-09-12T10:21:14.036Z,1944.00
2017-09-12T10:22:14.023Z,2108.00
2017-09-12T10:23:14.027Z,2080.00
2017-09-12T10:24:13.998Z,2044.00
2017-09-12T10:25:14.035Z,2136.00
2017-09-12T10:26:13.973Z,2212.00
2017-09-12T10:27:13.967Z,2088.00
2017-09-12T10:28:13.952Z,1988.00
2017-09-12T10:29:13.938Z,1928.00
2017-09-12T10:30:13.974Z,2020.00
2017-09-12T10:31:13.904Z,2016.00
2017-09-12T10:32:13.892Z,2016.00
2017-09-12T10:33:13.878Z,2004.00
2017-09-12T10:34:13.865Z,1984.00
2017-09-12T10:35:13.852Z,2008.00
2017-09-12T10:36:13.840Z,2056.00
2017-09-12T10:37:13.825Z,2108.00
2017-09-12T10:38:13.812Z,2264.00
2017-09-12T10:39:13.805Z,2516.00
2017-09-12T10:40:13.786Z,2740.00
2017-09-12T10:41:13.824Z,2908.00
2017-09-12T10:42:13.775Z,3080.00
2017-09-12T10:43:13.746Z,3160.00
2017-09-12T10:44:13.732Z,3260.00
2017-09-12T10:45:13.723Z,3416.00
2017-09-12T10:46:13.758Z,3660.00
2017-09-12T10:47:13.716Z,3848.00
2017-09-12T10:48:13.686Z,4088.00
2017-09-12T10:49:13.668Z,4372.00
2017-09-12T10:50:13.655Z,4584.00
2017-09-12T10:51:13.642Z,4768.00
2017-09-12T10:52:13.629Z,4892.00
2017-09-12T10:53:13.620Z,5028.00
2017-09-12T10:54:13.604Z,5116.00
2017-09-12T10:55:13.646Z,5208.00
2017-09-12T10:56:13.578Z,5320.00
2017-09-12T10:57:13.587Z,5504.00
2017-09-12T10:58:13.554Z,5552.00
2017-09-12T10:59:13.541Z,5552.00
2017-09-12T11:00:13.584Z,5876.00
2017-09-12T11:01:13.516Z,6148.00
2017-09-12T11:02:13.510Z,6240.00
2017-09-12T11:03:13.491Z,6064.00
2017-09-12T11:04:13.483Z,6112.00
2017-09-12T11:05:13.469Z,6048.00
2017-09-12T11:06:13.507Z,5884.00
2017-09-12T11:07:13.443Z,5800.00
2017-09-12T11:08:13.433Z,5496.00
2017-09-12T11:09:13.420Z,5224.00
2017-09-12T11:10:13.409Z,4728.00
2017-09-12T11:11:13.395Z,4172.00
2017-09-12T11:12:13.384Z,3856.00
2017-09-12T11:13:13.378Z,3780.00
2017-09-12T11:14:13.363Z,3688.00
2017-09-12T11:15:13.354Z,3568.00
2017-09-12T11:16:13.337Z,3692.00
2017-09-12T11:17:13.375Z,3764.00
2017-09-12T11:18:13.318Z,3952.00
2017-09-12T11:19:13.302Z,4096.00
2017-09-12T11:20:13.289Z,4188.00
2017-09-12T11:21:13.278Z,4132.00
2017-09-12T11:22:13.265Z,4028.00
2017-09-12T11:23:13.253Z,4236.00
2017-09-12T11:24:13.247Z,4484.00
2017-09-12T11:25:13.280Z,4724.00
2017-09-12T11:26:13.219Z,4908.00
2017-09-12T11:27:13.204Z,5064.00
2017-09-12T11:28:13.249Z,5228.00
2017-09-12T11:29:13.181Z,5384.00
2017-09-12T11:30:13.175Z,5572.00
2017-09-12T11:31:13.159Z,5524.00
2017-09-12T11:32:13.148Z,5408.00
2017-09-12T11:33:13.136Z,5436.00
2017-09-12T11:34:13.125Z,5352.00
2017-09-12T11:35:13.114Z,5304.00
2017-09-12T11:36:13.099Z,5284.00
2017-09-12T11:37:13.088Z,5216.00
2017-09-12T11:38:13.078Z,5036.00
2017-09-12T11:39:13.117Z,4700.00
2017-09-12T11:40:13.067Z,4348.00
2017-09-12T11:41:13.053Z,4192.00
2017-09-12T11:42:13.037Z,4220.00
2017-09-12T11:43:13.021Z,4444.00
2017-09-12T11:44:13.015Z,4620.00
2017-09-12T11:45:13.049Z,4716.00
2017-09-12T11:46:12.988Z,4840.00
2017-09-12T11:47:12.980Z,4872.00
2017-09-12T11:48:12.965Z,4624.00
2017-09-12T11:49:12.953Z,4284.00
2017-09-12T11:50:12.942Z,4052.00
2017-09-12T11:51:12.931Z,3876.00
2017-09-12T11:52:12.926Z,3792.00
2017-09-12T11:53:12.907Z,3812.00
2017-09-12T11:54:12.899Z,3880.00
2017-09-12T11:55:12.886Z,3912.00
2017-09-12T11:56:12.931Z,3768.00
2017-09-12T11:57:12.877Z,3508.00
2017-09-12T11:58:12.853Z,3204.00
2017-09-12T11:59:12.850Z,3024.00
2017-09-12T12:00:12.830Z,2976.00
2017-09-12T12:01:12.875Z,2976.00
2017-09-12T12:02:12.809Z,2992.00
2017-09-12T12:03:12.797Z,2872.00
2017-09-12T12:04:12.788Z,2676.00
2017-09-12T12:05:12.780Z,2424.00
2017-09-12T12:06:12.815Z,2164.00
2017-09-12T12:07:12.752Z,1960.00
2017-09-12T12:08:12.741Z,1936.00
2017-09-12T12:09:12.734Z,2148.00
2017-09-12T12:10:12.728Z,2564.00
2017-09-12T12:11:12.758Z,3076.00
2017-09-12T12:12:12.698Z,3544.00
2017-09-12T12:13:12.688Z,3824.00
2017-09-12T12:14:12.680Z,3884.00
2017-09-12T12:15:12.662Z,3768.00
2017-09-12T12:16:12.707Z,3612.00
2017-09-12T12:17:12.691Z,3300.00
2017-09-12T12:18:12.631Z,3340.00
2017-09-12T12:19:12.617Z,3516.00
2017-09-12T12:20:12.606Z,3512.00
2017-09-12T12:21:12.600Z,3388.00
2017-09-12T12:22:12.634Z,3340.00
2017-09-12T12:23:12.570Z,3364.00
2017-09-12T12:24:12.560Z,3472.00
2017-09-12T12:25:12.549Z,3588.00
2017-09-12T12:26:12.537Z,3668.00
2017-09-12T12:27:12.576Z,3644.00
2017-09-12T12:28:12.514Z,3548.00
2017-09-12T12:29:12.504Z,3628.00
2017-09-12T12:30:12.491Z,3944.00
2017-09-12T12:31:12.483Z,3844.00
2017-09-12T12:32:12.468Z,3372.00
2017-09-12T12:33:12.457Z,3320.00
2017-09-12T12:34:12.447Z,3300.00
2017-09-12T12:35:12.434Z,2996.00
2017-09-12T12:36:12.423Z,3164.00
2017-09-12T12:37:12.468Z,3132.00
2017-09-12T12:38:12.401Z,3232.00
2017-09-12T12:39:12.394Z,3412.00
2017-09-12T12:40:12.427Z,3604.00
2017-09-12T12:41:12.366Z,3680.00
2017-09-12T12:42:12.355Z,3744.00
2017-09-12T12:43:12.365Z,3576.00
2017-09-12T12:44:12.333Z,3332.00
2017-09-12T12:45:12.322Z,3200.00
2017-09-12T12:46:12.311Z,3264.00
2017-09-12T12:47:12.354Z,3300.00
2017-09-12T12:48:12.287Z,3444.00
2017-09-12T12:49:12.281Z,3644.00
2017-09-12T12:50:12.266Z,3672.00
2017-09-12T12:51:12.256Z,3604.00
2017-09-12T12:52:12.247Z,3572.00
2017-09-12T12:53:12.281Z,3504.00
2017-09-12T12:54:12.220Z,3412.00
2017-09-12T12:55:12.264Z,3348.00
2017-09-12T12:56:12.198Z,3392.00
2017-09-12T12:57:12.188Z,3184.00
2017-09-12T12:58:12.175Z,2848.00
2017-09-12T12:59:12.173Z,2540.00
2017-09-12T13:00:12.154Z,2436.00
2017-09-12T13:01:12.143Z,2712.00
2017-09-12T13:02:12.132Z,3004.00
2017-09-12T13:03:12.120Z,3108.00
2017-09-12T13:04:12.114Z,3240.00
2017-09-12T13:05:12.099Z,3264.00
2017-09-12T13:06:12.087Z,3240.00
2017-09-12T13:07:12.076Z,3088.00
2017-09-12T13:08:12.067Z,2812.00
2017-09-12T13:09:12.055Z,2648.00
2017-09-12T13:10:12.050Z,2540.00
2017-09-12T13:11:12.033Z,2740.00
2017-09-12T13:12:12.078Z,2776.00
2017-09-12T13:13:12.061Z,2528.00
2017-09-12T13:14:12.001Z,2408.00
2017-09-12T13:15:11.995Z,2256.00
2017-09-12T13:16:11.985Z,2304.00
2017-09-12T13:17:11.974Z,2448.00
2017-09-12T13:18:11.958Z,2456.00
2017-09-12T13:19:12.025Z,2204.00
2017-09-12T13:20:11.941Z,1924.00
2017-09-12T13:21:11.923Z,1924.00
2017-09-12T13:22:11.914Z,2052.00
2017-09-12T13:23:11.907Z,2112.00
2017-09-12T13:24:11.891Z,2056.00
2017-09-12T13:25:11.929Z,1940.00
2017-09-12T13:26:11.869Z,1952.00
2017-09-12T13:27:11.861Z,1988.00
2017-09-12T13:28:11.846Z,1976.00
2017-09-12T13:29:11.839Z,1892.00
2017-09-12T13:30:11.827Z,1896.00
2017-09-12T13:31:11.859Z,1924.00
2017-09-12T13:32:11.797Z,1952.00
2017-09-12T13:33:11.788Z,1908.00
2017-09-12T13:34:11.775Z,1896.00
2017-09-12T13:35:11.764Z,1824.00
2017-09-12T13:36:11.802Z,1692.00
2017-09-12T13:37:11.742Z,1608.00
2017-09-12T13:38:11.729Z,1676.00
2017-09-12T13:39:11.716Z,1840.00
2017-09-12T13:40:11.712Z,2020.00
2017-09-12T13:41:11.744Z,2288.00
2017-09-12T13:42:11.682Z,2840.00
2017-09-12T13:43:11.676Z,3240.00
2017-09-12T13:44:11.660Z,3308.00
2017-09-12T13:45:11.649Z,3068.00
2017-09-12T13:46:11.692Z,2576.00
2017-09-12T13:47:11.629Z,2132.00
2017-09-12T13:48:11.613Z,1956.00
2017-09-12T13:49:11.602Z,1796.00
2017-09-12T13:50:11.595Z,1828.00
2017-09-12T13:51:11.632Z,1828.00
2017-09-12T13:52:11.565Z,1988.00
2017-09-12T13:53:11.555Z,2120.00
2017-09-12T13:54:11.543Z,2136.00
2017-09-12T13:55:11.531Z,2336.00
2017-09-12T13:56:11.569Z,2428.00
2017-09-12T13:57:11.508Z,2280.00
2017-09-12T13:58:11.502Z,2232.00
2017-09-12T13:59:11.489Z,2304.00
2017-09-12T14:00:11.473Z,2416.00
2017-09-12T14:01:11.479Z,2388.00
2017-09-12T14:02:11.454Z,2312.00
2017-09-12T14:03:11.442Z,2252.00
2017-09-12T14:04:11.424Z,2396.00
2017-09-12T14:05:11.419Z,2384.00
2017-09-12T14:06:11.407Z,2256.00
2017-09-12T14:07:11.394Z,2328.00
2017-09-12T14:08:11.376Z,2536.00
2017-09-12T14:09:11.416Z,2472.00
2017-09-12T14:10:11.355Z,2312.00
2017-09-12T14:11:11.347Z,2268.00
2017-09-12T14:12:11.329Z,2144.00